createdAt,value
2023-02-08T00:01:27.236Z,-20.98
2023-02-08T00:03:53.913Z,-21.08
2023-02-08T00:06:20.427Z,-21.09
2023-02-08T00:08:46.941Z,-21.05
2023-02-08T00:11:13.508Z,-21.05
2023-02-08T00:13:42.209Z,-21.06
2023-02-08T00:16:09.360Z,-21.09
2023-02-08T00:18:35.862Z,-21.16
2023-02-08T00:21:10.654Z,-21.27
2023-02-08T00:23:37.361Z,-21.36
2023-02-08T00:26:04.169Z,-21.26
2023-02-08T00:28:30.951Z,-21.26
2023-02-08T00:30:57.820Z,-21.22
2023-02-08T00:33:24.516Z,-21.20
2023-02-08T00:35:51.795Z,-21.26
2023-02-08T00:38:18.281Z,-21.28
2023-02-08T00:40:44.743Z,-21.26
2023-02-08T00:43:11.742Z,-21.25
2023-02-08T00:45:38.362Z,-21.40
2023-02-08T00:48:04.813Z,-21.42
2023-02-08T00:50:31.306Z,-21.38
2023-02-08T00:52:59.606Z,-21.40
2023-02-08T00:55:26.050Z,-21.30
2023-02-08T00:57:52.478Z,-21.65
2023-02-08T01:00:19.083Z,-21.60
2023-02-08T01:02:45.576Z,-21.52
2023-02-08T01:05:12.738Z,-21.41
2023-02-08T01:07:39.450Z,-21.34
2023-02-08T01:10:07.274Z,-21.34
2023-02-08T01:12:33.710Z,-21.31
2023-02-08T01:15:00.188Z,-21.39
2023-02-08T01:17:26.714Z,-21.54
2023-02-08T01:19:53.449Z,-21.43
2023-02-08T01:22:19.963Z,-21.46
2023-02-08T01:24:46.430Z,-21.41
2023-02-08T01:27:12.988Z,-21.22
2023-02-08T01:29:39.435Z,-21.22
2023-02-08T01:32:06.098Z,-21.27
2023-02-08T01:34:32.585Z,-21.28
2023-02-08T01:36:59.108Z,-21.39
2023-02-08T01:39:25.600Z,-21.30
2023-02-08T01:41:52.118Z,-21.27
2023-02-08T01:44:18.562Z,-21.25
2023-02-08T01:46:48.604Z,-21.25
2023-02-08T01:49:20.541Z,-21.19
2023-02-08T01:51:54.847Z,-21.23
2023-02-08T01:54:24.129Z,-21.38
2023-02-08T01:56:50.934Z,-21.36
2023-02-08T01:59:22.827Z,-21.72
2023-02-08T02:01:51.434Z,-21.66
2023-02-08T02:04:18.057Z,-21.66
2023-02-08T02:06:47.115Z,-21.64
2023-02-08T02:09:36.245Z,-21.75
2023-02-08T02:12:02.715Z,-21.84
2023-02-08T02:14:29.303Z,-21.76
2023-02-08T02:16:55.868Z,-21.72
2023-02-08T02:19:30.882Z,-21.61
2023-02-08T02:22:10.905Z,-21.73
2023-02-08T02:25:09.533Z,-21.78
2023-02-08T02:27:45.649Z,-21.65
2023-02-08T02:30:37.312Z,-21.83
2023-02-08T02:33:31.910Z,-21.92
2023-02-08T02:36:35.383Z,-21.78
2023-02-08T02:39:23.614Z,-21.98
2023-02-08T02:42:19.971Z,-21.92
2023-02-08T02:44:58.522Z,-21.74
2023-02-08T02:47:31.729Z,-21.68
2023-02-08T02:50:10.160Z,-21.65
2023-02-08T02:52:48.686Z,-21.62
2023-02-08T02:55:17.414Z,-21.58
2023-02-08T02:57:45.090Z,-21.63
2023-02-08T03:00:13.930Z,-21.57
2023-02-08T03:02:40.421Z,-21.53
2023-02-08T03:05:09.639Z,-21.62
2023-02-08T03:07:50.433Z,-21.61
2023-02-08T03:10:22.780Z,-21.56
2023-02-08T03:12:59.589Z,-21.58
2023-02-08T03:15:34.666Z,-21.55
2023-02-08T03:18:13.018Z,-21.62
2023-02-08T03:20:50.076Z,-21.66
2023-02-08T03:23:30.548Z,-21.63
2023-02-08T03:26:08.280Z,-21.61
2023-02-08T03:29:03.278Z,-21.58
2023-02-08T03:31:40.061Z,-21.54
2023-02-08T03:34:12.908Z,-21.49
2023-02-08T03:37:31.025Z,-21.47
2023-02-08T03:40:36.327Z,-21.45
2023-02-08T03:43:08.843Z,-21.58
2023-02-08T03:45:42.392Z,-21.48
2023-02-08T03:48:11.017Z,-21.42
2023-02-08T03:50:39.941Z,-21.45
2023-02-08T03:53:07.735Z,-21.39
2023-02-08T03:55:35.803Z,-21.42
2023-02-08T03:58:19.762Z,-21.45
2023-02-08T04:00:52.277Z,-21.47
2023-02-08T04:03:27.462Z,-21.38
2023-02-08T04:05:54.460Z,-21.43
2023-02-08T04:08:21.899Z,-21.47
2023-02-08T04:10:48.951Z,-21.44
2023-02-08T04:13:15.598Z,-21.55
2023-02-08T04:15:42.140Z,-21.48
2023-02-08T04:18:08.702Z,-21.46
2023-02-08T04:20:35.195Z,-21.72
2023-02-08T04:23:01.668Z,-21.58
2023-02-08T04:25:28.497Z,-21.57
2023-02-08T04:27:55.035Z,-21.51
2023-02-08T04:30:21.505Z,-21.56
2023-02-08T04:32:48.112Z,-21.58
2023-02-08T04:35:14.719Z,-21.49
2023-02-08T04:37:41.179Z,-21.51
2023-02-08T04:40:08.113Z,-21.67
2023-02-08T04:42:35.249Z,-21.55
2023-02-08T04:45:01.744Z,-21.45
2023-02-08T04:47:28.399Z,-21.45
2023-02-08T04:49:54.825Z,-21.46
2023-02-08T04:52:21.269Z,-21.42
2023-02-08T04:54:47.701Z,-21.38
2023-02-08T04:57:14.332Z,-21.57
2023-02-08T04:59:40.854Z,-21.42
2023-02-08T05:02:07.342Z,-21.42
2023-02-08T05:04:34.093Z,-21.41
2023-02-08T05:07:00.536Z,-21.49
2023-02-08T05:09:27.075Z,-21.47
2023-02-08T05:11:53.518Z,-21.39
2023-02-08T05:14:20.064Z,-21.30
2023-02-08T05:16:46.545Z,-21.38
2023-02-08T05:19:13.467Z,-21.36
2023-02-08T05:21:39.971Z,-21.25
2023-02-08T05:24:07.191Z,-21.46
2023-02-08T05:26:33.665Z,-21.35
2023-02-08T05:29:00.165Z,-21.31
2023-02-08T05:31:26.941Z,-21.29
2023-02-08T05:33:53.658Z,-21.23
2023-02-08T05:36:23.188Z,-21.19
2023-02-08T05:38:50.012Z,-21.22
2023-02-08T05:41:17.191Z,-21.21
2023-02-08T05:43:43.642Z,-21.22
2023-02-08T05:46:10.096Z,-21.29
2023-02-08T05:48:36.758Z,-21.19
2023-02-08T05:51:03.616Z,-21.25
2023-02-08T05:53:30.520Z,-21.20
2023-02-08T05:56:00.128Z,-21.13
2023-02-08T05:58:26.943Z,-21.11
2023-02-08T06:00:53.528Z,-21.10
2023-02-08T06:03:20.092Z,-21.08
2023-02-08T06:05:46.678Z,-21.05
2023-02-08T06:08:13.237Z,-20.98
2023-02-08T06:10:40.084Z,-21.09
2023-02-08T06:13:06.760Z,-21.24
2023-02-08T06:15:33.229Z,-21.17
2023-02-08T06:17:59.791Z,-21.25
2023-02-08T06:20:26.470Z,-21.13
2023-02-08T06:22:53.138Z,-21.06
2023-02-08T06:25:19.651Z,-21.09
2023-02-08T06:27:46.325Z,-21.12
2023-02-08T06:30:13.372Z,-21.12
2023-02-08T06:32:39.906Z,-21.08
2023-02-08T06:35:07.072Z,-21.11
2023-02-08T06:37:33.950Z,-21.05
2023-02-08T06:40:01.966Z,-20.98
2023-02-08T06:42:28.584Z,-20.96
2023-02-08T06:44:56.076Z,-20.89
2023-02-08T06:47:23.308Z,-20.90
2023-02-08T06:49:50.246Z,-20.80
2023-02-08T06:52:16.958Z,-20.90
2023-02-08T06:54:43.424Z,-20.82
2023-02-08T06:57:12.914Z,-20.71
2023-02-08T06:59:40.314Z,-20.68
2023-02-08T07:02:14.036Z,-20.62
2023-02-08T07:04:40.621Z,-20.76
2023-02-08T07:07:07.595Z,-20.78
2023-02-08T07:09:35.208Z,-20.72
2023-02-08T07:12:05.328Z,-20.72
2023-02-08T07:14:37.163Z,-20.72
2023-02-08T07:17:03.840Z,-20.58
2023-02-08T07:19:30.525Z,-20.67
2023-02-08T07:21:57.443Z,-20.64
2023-02-08T07:24:24.156Z,-20.66
2023-02-08T07:26:50.731Z,-20.70
2023-02-08T07:29:17.245Z,-20.75
2023-02-08T07:31:43.752Z,-20.73
2023-02-08T07:34:10.256Z,-20.76
2023-02-08T07:36:36.844Z,-20.76
2023-02-08T07:39:03.540Z,-20.70
2023-02-08T07:41:30.076Z,-20.66
2023-02-08T07:43:56.510Z,-20.70
2023-02-08T07:46:23.715Z,-20.77
2023-02-08T07:48:50.329Z,-20.75
2023-02-08T07:51:16.976Z,-20.78
2023-02-08T07:53:43.509Z,-20.72
2023-02-08T07:56:10.476Z,-20.78
2023-02-08T07:58:37.506Z,-20.94
2023-02-08T08:01:19.507Z,-20.88
2023-02-08T08:03:48.749Z,-20.89
2023-02-08T08:06:15.287Z,-20.78
2023-02-08T08:08:42.354Z,-20.79
2023-02-08T08:11:08.955Z,-20.67
2023-02-08T08:13:35.409Z,-20.59
2023-02-08T08:16:01.986Z,-20.62
2023-02-08T08:18:29.247Z,-20.54
2023-02-08T08:20:55.726Z,-20.60
2023-02-08T08:23:23.899Z,-20.49
2023-02-08T08:25:50.432Z,-20.68
2023-02-08T08:28:17.137Z,-20.86
2023-02-08T08:30:44.687Z,-20.78
2023-02-08T08:33:14.070Z,-20.81
2023-02-08T08:35:41.172Z,-20.76
2023-02-08T08:38:07.634Z,-20.73
2023-02-08T08:40:34.251Z,-20.72
2023-02-08T08:43:00.761Z,-20.81
2023-02-08T08:45:27.401Z,-20.65
2023-02-08T08:47:54.028Z,-20.70
2023-02-08T08:50:20.492Z,-20.70
2023-02-08T08:52:46.932Z,-20.65
2023-02-08T08:55:13.519Z,-20.61
2023-02-08T08:57:39.979Z,-20.45
2023-02-08T09:00:06.799Z,-20.38
2023-02-08T09:02:33.319Z,-20.25
2023-02-08T09:05:00.312Z,-20.46
2023-02-08T09:07:26.927Z,-20.46
2023-02-08T09:09:53.393Z,-20.37
2023-02-08T09:12:19.889Z,-20.34
2023-02-08T09:14:46.412Z,-20.36
2023-02-08T09:17:13.039Z,-20.30
2023-02-08T09:19:39.592Z,-20.31
2023-02-08T09:22:07.351Z,-20.14
2023-02-08T09:24:34.504Z,-20.24
2023-02-08T09:27:01.335Z,-20.20
2023-02-08T09:29:30.159Z,-20.27
2023-02-08T09:31:57.266Z,-20.26
2023-02-08T09:34:24.247Z,-20.43
2023-02-08T09:36:50.749Z,-20.40
2023-02-08T09:39:20.378Z,-20.22
2023-02-08T09:42:08.850Z,-20.16
2023-02-08T09:44:47.222Z,-20.14
2023-02-08T09:47:29.514Z,-20.09
2023-02-08T09:50:04.011Z,-20.11
2023-02-08T09:52:39.188Z,-19.94
2023-02-08T09:55:29.096Z,-19.80
2023-02-08T09:57:58.354Z,-19.81
2023-02-08T10:00:51.647Z,-19.66
2023-02-08T10:03:30.282Z,-19.54
2023-02-08T10:05:57.201Z,-19.49
2023-02-08T10:08:34.367Z,-19.56
2023-02-08T10:11:13.275Z,-19.50
2023-02-08T10:13:45.201Z,-19.43
2023-02-08T10:16:49.089Z,-19.55
2023-02-08T10:19:38.211Z,-19.44
2023-02-08T10:22:16.405Z,-19.44
2023-02-08T10:25:04.460Z,-19.46
2023-02-08T10:27:54.402Z,-19.64
2023-02-08T10:30:31.611Z,-19.42
2023-02-08T10:33:02.013Z,-19.62
2023-02-08T10:35:37.257Z,-19.69
2023-02-08T10:38:23.394Z,-19.32
2023-02-08T10:40:56.790Z,-19.25
2023-02-08T10:43:37.238Z,-19.38
2023-02-08T10:46:09.882Z,-19.49
2023-02-08T10:48:46.978Z,-19.56
2023-02-08T10:51:17.894Z,-19.62
2023-02-08T10:53:44.854Z,-19.49
2023-02-08T10:56:29.718Z,-19.58
2023-02-08T10:59:00.501Z,-19.50
2023-02-08T11:01:27.931Z,-19.41
2023-02-08T11:04:12.078Z,-19.37
2023-02-08T11:06:40.622Z,-19.45
2023-02-08T11:09:13.154Z,-19.46
2023-02-08T11:11:41.161Z,-19.65
2023-02-08T11:14:19.525Z,-19.63
2023-02-08T11:16:54.147Z,-19.56
2023-02-08T11:19:35.366Z,-19.55
2023-02-08T11:22:05.736Z,-19.50
2023-02-08T11:24:40.027Z,-19.36
2023-02-08T11:27:28.866Z,-19.52
2023-02-08T11:30:15.823Z,-19.41
2023-02-08T11:32:44.255Z,-19.37
2023-02-08T11:35:23.747Z,-19.21
2023-02-08T11:37:54.667Z,-19.41
2023-02-08T11:40:25.002Z,-19.40
2023-02-08T11:42:51.729Z,-19.48
2023-02-08T11:45:36.314Z,-19.58
2023-02-08T11:48:05.014Z,-19.41
2023-02-08T11:50:34.811Z,-19.34
2023-02-08T11:53:06.522Z,-19.44
2023-02-08T11:55:34.554Z,-19.47
2023-02-08T11:58:09.536Z,-19.43
2023-02-08T12:00:37.393Z,-19.47
2023-02-08T12:03:06.885Z,-19.58
2023-02-08T12:05:49.870Z,-19.43
2023-02-08T12:08:29.237Z,-19.49
2023-02-08T12:11:14.190Z,-19.36
2023-02-08T12:13:46.764Z,-19.45
2023-02-08T12:16:22.045Z,-19.36
2023-02-08T12:18:52.734Z,-19.50
2023-02-08T12:21:23.253Z,-19.45
2023-02-08T12:23:55.847Z,-19.28
2023-02-08T12:26:37.495Z,-19.21
2023-02-08T12:29:48.009Z,-19.30
2023-02-08T12:32:20.732Z,-19.27
2023-02-08T12:35:33.054Z,-19.11
2023-02-08T12:38:57.209Z,-19.33
2023-02-08T12:41:36.233Z,-19.42
2023-02-08T12:44:08.756Z,-19.39
2023-02-08T12:46:49.069Z,-19.33
2023-02-08T12:49:41.871Z,-19.42
2023-02-08T12:52:24.303Z,-19.29
2023-02-08T12:54:58.205Z,-19.10
2023-02-08T12:57:27.105Z,-18.96
2023-02-08T13:00:23.798Z,-18.82
2023-02-08T13:03:16.425Z,-18.91
2023-02-08T13:06:01.265Z,-19.04
2023-02-08T13:08:40.677Z,-18.96
2023-02-08T13:11:37.237Z,-18.88
2023-02-08T13:14:13.507Z,-18.75
2023-02-08T13:16:46.040Z,-18.66
2023-02-08T13:19:33.651Z,-18.62
2023-02-08T13:22:00.685Z,-18.82
2023-02-08T13:24:41.866Z,-18.83
2023-02-08T13:27:16.159Z,-18.93
2023-02-08T13:29:47.144Z,-18.96
2023-02-08T13:32:22.417Z,-18.91
2023-02-08T13:34:53.130Z,-18.81
2023-02-08T13:37:30.262Z,-18.74
2023-02-08T13:40:17.392Z,-18.84
2023-02-08T13:42:49.144Z,-18.78
2023-02-08T13:45:39.929Z,-18.64
2023-02-08T13:48:08.652Z,-18.74
2023-02-08T13:50:35.307Z,-18.71
2023-02-08T13:53:02.965Z,-18.66
2023-02-08T13:55:33.571Z,-18.61
2023-02-08T13:58:16.196Z,-18.52
2023-02-08T14:01:08.824Z,-18.74
2023-02-08T14:03:35.482Z,-18.72
2023-02-08T14:06:05.725Z,-18.79
2023-02-08T14:09:07.123Z,-18.87
2023-02-08T14:11:41.136Z,-19.11
2023-02-08T14:14:17.641Z,-19.19
2023-02-08T14:17:20.175Z,-19.40
2023-02-08T14:19:57.227Z,-19.52
2023-02-08T14:22:23.821Z,-19.56
2023-02-08T14:25:01.858Z,-19.41
2023-02-08T14:27:53.588Z,-19.27
2023-02-08T14:30:22.234Z,-19.24
2023-02-08T14:32:51.492Z,-19.26
2023-02-08T14:35:22.887Z,-19.37
2023-02-08T14:37:52.172Z,-19.38
2023-02-08T14:40:22.462Z,-19.64
2023-02-08T14:43:03.911Z,-19.66
2023-02-08T14:45:39.209Z,-19.76
2023-02-08T14:48:11.990Z,-19.80
2023-02-08T14:50:51.187Z,-19.79
2023-02-08T14:53:52.409Z,-19.77
2023-02-08T14:56:31.601Z,-19.77
2023-02-08T14:59:09.546Z,-19.90
2023-02-08T15:01:44.943Z,-20.11
2023-02-08T15:04:15.580Z,-20.12
2023-02-08T15:07:40.868Z,-20.03
2023-02-08T15:10:15.860Z,-19.97
2023-02-08T15:12:45.697Z,-20.18
2023-02-08T15:15:33.420Z,-20.39
2023-02-08T15:18:01.657Z,-20.38
2023-02-08T15:20:33.208Z,-20.48
2023-02-08T15:23:07.219Z,-20.50
2023-02-08T15:25:36.407Z,-20.73
2023-02-08T15:28:15.058Z,-20.74
2023-02-08T15:30:42.808Z,-20.76
2023-02-08T15:33:14.573Z,-20.67
2023-02-08T15:35:42.622Z,-20.78
2023-02-08T15:38:27.676Z,-20.87
2023-02-08T15:41:03.448Z,-20.93
2023-02-08T15:43:30.507Z,-20.86
2023-02-08T15:45:58.463Z,-20.92
2023-02-08T15:48:25.890Z,-20.96
2023-02-08T15:50:53.832Z,-20.91
2023-02-08T15:53:20.835Z,-21.01
2023-02-08T15:55:49.796Z,-21.11
2023-02-08T15:58:28.569Z,-21.15
2023-02-08T16:00:57.346Z,-21.17
2023-02-08T16:03:24.683Z,-21.23
2023-02-08T16:05:54.205Z,-21.34
2023-02-08T16:08:23.682Z,-21.30
2023-02-08T16:10:54.756Z,-21.33
2023-02-08T16:13:27.701Z,-21.44
2023-02-08T16:16:07.229Z,-21.38
2023-02-08T16:18:46.067Z,-21.45
2023-02-08T16:21:27.147Z,-21.53
2023-02-08T16:23:56.669Z,-21.63
2023-02-08T16:26:28.202Z,-21.72
2023-02-08T16:29:00.749Z,-21.60
2023-02-08T16:31:30.909Z,-21.65
2023-02-08T16:34:13.054Z,-21.65
2023-02-08T16:36:41.462Z,-21.69
2023-02-08T16:39:13.842Z,-21.88
2023-02-08T16:42:16.122Z,-21.86
2023-02-08T16:44:59.183Z,-21.92
2023-02-08T16:47:29.946Z,-21.81
2023-02-08T16:49:56.507Z,-22.03
2023-02-08T16:52:23.021Z,-22.10
2023-02-08T16:54:49.539Z,-22.09
2023-02-08T16:57:16.279Z,-22.02
2023-02-08T16:59:42.894Z,-22.00
2023-02-08T17:02:13.414Z,-21.99
2023-02-08T17:04:40.372Z,-21.84
2023-02-08T17:07:13.340Z,-21.96
2023-02-08T17:09:42.252Z,-22.10
2023-02-08T17:12:21.773Z,-22.05
2023-02-08T17:14:48.625Z,-22.01
2023-02-08T17:17:15.400Z,-22.08
2023-02-08T17:19:44.409Z,-22.05
2023-02-08T17:22:10.964Z,-22.12
2023-02-08T17:24:39.214Z,-22.09
2023-02-08T17:27:06.007Z,-22.13
2023-02-08T17:29:32.599Z,-22.15
2023-02-08T17:31:59.373Z,-22.22
2023-02-08T17:34:25.889Z,-22.30
2023-02-08T17:36:52.557Z,-22.32
2023-02-08T17:39:19.192Z,-22.21
2023-02-08T17:41:45.708Z,-22.24
2023-02-08T17:44:15.207Z,-22.24
2023-02-08T17:46:42.502Z,-22.32
2023-02-08T17:49:09.109Z,-22.36
2023-02-08T17:51:35.602Z,-22.37
2023-02-08T17:54:05.422Z,-22.45
2023-02-08T17:56:35.364Z,-22.44
2023-02-08T17:59:04.240Z,-22.42
2023-02-08T18:01:31.381Z,-22.55
2023-02-08T18:03:59.428Z,-22.73
2023-02-08T18:06:26.105Z,-22.94
2023-02-08T18:08:54.599Z,-22.87
2023-02-08T18:11:21.171Z,-22.81
2023-02-08T18:13:49.328Z,-22.86
2023-02-08T18:16:21.300Z,-22.91
2023-02-08T18:18:47.963Z,-22.88
2023-02-08T18:21:17.441Z,-22.93
2023-02-08T18:23:44.456Z,-22.98
2023-02-08T18:26:17.020Z,-23.14
2023-02-08T18:28:44.794Z,-23.05
2023-02-08T18:31:14.850Z,-23.04
2023-02-08T18:33:42.828Z,-22.95
2023-02-08T18:36:11.801Z,-22.93
2023-02-08T18:38:45.569Z,-22.85
2023-02-08T18:41:18.786Z,-22.90
2023-02-08T18:43:45.792Z,-22.89
2023-02-08T18:46:14.552Z,-22.90
2023-02-08T18:48:41.595Z,-22.87
2023-02-08T18:51:09.491Z,-22.92
2023-02-08T18:53:38.994Z,-22.93
2023-02-08T18:56:07.343Z,-22.93
2023-02-08T18:58:34.591Z,-23.03
2023-02-08T19:01:15.677Z,-23.26
2023-02-08T19:03:43.149Z,-23.23
2023-02-08T19:06:22.770Z,-23.32
2023-02-08T19:08:51.613Z,-23.37
2023-02-08T19:11:25.277Z,-23.36
2023-02-08T19:13:52.491Z,-23.36
2023-02-08T19:16:22.056Z,-23.38
2023-02-08T19:18:49.202Z,-23.59
2023-02-08T19:21:17.484Z,-23.48
2023-02-08T19:23:48.216Z,-23.40
2023-02-08T19:26:18.205Z,-23.46
2023-02-08T19:28:44.683Z,-23.51
2023-02-08T19:31:13.810Z,-23.38
2023-02-08T19:33:42.239Z,-23.41
2023-02-08T19:36:11.810Z,-23.49
2023-02-08T19:38:38.427Z,-23.35
2023-02-08T19:41:06.697Z,-23.50
2023-02-08T19:43:33.757Z,-23.34
2023-02-08T19:46:00.474Z,-23.29
2023-02-08T19:48:27.164Z,-23.30
2023-02-08T19:50:58.647Z,-23.15
2023-02-08T19:53:25.874Z,-23.26
2023-02-08T19:56:06.769Z,-23.25
2023-02-08T19:58:34.447Z,-23.29
2023-02-08T20:01:06.236Z,-23.35
2023-02-08T20:03:32.766Z,-23.27
2023-02-08T20:05:59.221Z,-23.37
2023-02-08T20:08:27.384Z,-23.39
2023-02-08T20:10:54.833Z,-23.53
2023-02-08T20:13:21.804Z,-23.54
2023-02-08T20:15:48.527Z,-23.71
2023-02-08T20:18:16.297Z,-23.84
2023-02-08T20:20:43.553Z,-23.96
2023-02-08T20:23:21.761Z,-23.93
2023-02-08T20:25:48.897Z,-23.88
2023-02-08T20:28:15.501Z,-23.72
2023-02-08T20:30:42.235Z,-23.72
2023-02-08T20:33:08.786Z,-23.78
2023-02-08T20:35:36.470Z,-23.79
2023-02-08T20:38:03.221Z,-23.90
2023-02-08T20:40:29.885Z,-23.83
2023-02-08T20:42:56.414Z,-24.00
2023-02-08T20:45:23.050Z,-24.05
2023-02-08T20:47:49.562Z,-24.06
2023-02-08T20:50:19.640Z,-24.04
2023-02-08T20:52:47.289Z,-23.99
2023-02-08T20:55:13.796Z,-24.02
2023-02-08T20:57:40.593Z,-24.08
2023-02-08T21:00:07.569Z,-24.03
2023-02-08T21:02:34.167Z,-24.03
2023-02-08T21:05:00.700Z,-24.11
2023-02-08T21:07:27.235Z,-24.15
2023-02-08T21:09:53.791Z,-24.20
2023-02-08T21:12:20.325Z,-24.17
2023-02-08T21:14:46.776Z,-24.21
2023-02-08T21:17:13.246Z,-24.24
2023-02-08T21:19:39.691Z,-24.29
2023-02-08T21:22:06.367Z,-24.33
2023-02-08T21:24:32.926Z,-24.39
2023-02-08T21:26:59.721Z,-24.33
2023-02-08T21:29:26.386Z,-24.31
2023-02-08T21:31:54.404Z,-24.23
2023-02-08T21:34:21.450Z,-24.17
2023-02-08T21:36:48.246Z,-24.15
2023-02-08T21:39:14.689Z,-24.17
2023-02-08T21:41:41.166Z,-24.18
2023-02-08T21:44:09.163Z,-24.23
2023-02-08T21:46:35.889Z,-24.19
2023-02-08T21:49:21.370Z,-24.24
2023-02-08T21:52:06.348Z,-24.18
2023-02-08T21:54:44.633Z,-24.20
2023-02-08T21:57:18.945Z,-24.34
2023-02-08T21:59:47.532Z,-24.38
2023-02-08T22:02:16.786Z,-24.34
2023-02-08T22:04:46.599Z,-24.51
2023-02-08T22:07:13.728Z,-24.45
2023-02-08T22:09:41.646Z,-24.42
2023-02-08T22:12:14.502Z,-24.57
2023-02-08T22:14:41.047Z,-24.54
2023-02-08T22:17:07.543Z,-24.63
2023-02-08T22:19:34.047Z,-24.63
2023-02-08T22:22:02.232Z,-24.82
2023-02-08T22:24:28.698Z,-24.83
2023-02-08T22:26:55.707Z,-24.85
2023-02-08T22:29:22.987Z,-24.75
2023-02-08T22:31:49.610Z,-24.87
2023-02-08T22:34:16.217Z,-24.94
2023-02-08T22:36:42.676Z,-25.00
2023-02-08T22:39:09.185Z,-25.00
2023-02-08T22:41:35.941Z,-24.96
2023-02-08T22:44:02.429Z,-24.86
2023-02-08T22:46:29.099Z,-24.96
2023-02-08T22:48:55.793Z,-24.99
2023-02-08T22:51:23.557Z,-25.02
2023-02-08T22:53:50.182Z,-25.05
2023-02-08T22:56:18.175Z,-25.15
2023-02-08T22:58:44.605Z,-25.11
2023-02-08T23:01:15.718Z,-25.07
2023-02-08T23:03:43.033Z,-25.18
2023-02-08T23:06:10.874Z,-25.12
2023-02-08T23:08:37.512Z,-25.24
2023-02-08T23:11:05.844Z,-25.15
2023-02-08T23:13:33.015Z,-25.23
2023-02-08T23:15:59.679Z,-25.30
2023-02-08T23:18:26.290Z,-25.28
2023-02-08T23:20:54.439Z,-25.30
2023-02-08T23:23:21.080Z,-25.40
2023-02-08T23:25:47.914Z,-25.39
2023-02-08T23:28:14.521Z,-25.46
2023-02-08T23:30:42.411Z,-25.38
2023-02-08T23:33:09.057Z,-25.47
2023-02-08T23:35:35.556Z,-25.41
2023-02-08T23:38:02.204Z,-25.53
2023-02-08T23:40:28.755Z,-25.46
2023-02-08T23:42:55.274Z,-25.41
2023-02-08T23:45:22.734Z,-25.50
2023-02-08T23:47:49.274Z,-25.51
2023-02-08T23:50:15.818Z,-25.50
2023-02-08T23:52:42.567Z,-25.55
2023-02-08T23:55:09.346Z,-25.52
2023-02-08T23:57:37.290Z,-25.64
